sensor_id;sensor_type;location;lat;lon;timestamp;P1;durP1;ratioP1;P2;durP2;ratioP2
68097;SDS011;54886;47.036;15.466;2023-04-25T00:00:46;6.70;;;3.35;;
68097;SDS011;54886;47.036;15.466;2023-04-25T00:03:11;5.60;;;3.13;;
68097;SDS011;54886;47.036;15.466;2023-04-25T00:05:37;4.40;;;2.83;;
68097;SDS011;54886;47.036;15.466;2023-04-25T00:08:03;6.20;;;3.20;;
68097;SDS011;54886;47.036;15.466;2023-04-25T00:10:29;5.63;;;3.00;;
68097;SDS011;54886;47.036;15.466;2023-04-25T00:12:55;5.75;;;3.20;;
68097;SDS011;54886;47.036;15.466;2023-04-25T00:15:20;5.95;;;3.20;;
68097;SDS011;54886;47.036;15.466;2023-04-25T00:17:46;4.85;;;3.35;;
68097;SDS011;54886;47.036;15.466;2023-04-25T00:20:12;5.72;;;3.00;;
68097;SDS011;54886;47.036;15.466;2023-04-25T00:22:37;5.20;;;2.95;;
68097;SDS011;54886;47.036;15.466;2023-04-25T00:25:05;7.65;;;3.90;;
68097;SDS011;54886;47.036;15.466;2023-04-25T00:27:31;7.47;;;3.50;;
68097;SDS011;54886;47.036;15.466;2023-04-25T00:29:57;4.95;;;2.80;;
68097;SDS011;54886;47.036;15.466;2023-04-25T00:32:22;5.38;;;2.97;;
68097;SDS011;54886;47.036;15.466;2023-04-25T00:34:48;8.30;;;3.03;;
68097;SDS011;54886;47.036;15.466;2023-04-25T00:37:13;6.00;;;3.10;;
68097;SDS011;54886;47.036;15.466;2023-04-25T00:39:39;6.10;;;2.97;;
68097;SDS011;54886;47.036;15.466;2023-04-25T00:42:04;6.47;;;3.40;;
68097;SDS011;54886;47.036;15.466;2023-04-25T00:44:31;4.38;;;3.00;;
68097;SDS011;54886;47.036;15.466;2023-04-25T00:46:57;7.25;;;3.35;;
68097;SDS011;54886;47.036;15.466;2023-04-25T00:49:23;4.95;;;2.80;;
68097;SDS011;54886;47.036;15.466;2023-04-25T00:51:48;7.72;;;3.45;;
68097;SDS011;54886;47.036;15.466;2023-04-25T00:54:14;4.78;;;3.08;;
68097;SDS011;54886;47.036;15.466;2023-04-25T00:56:40;4.45;;;3.15;;
68097;SDS011;54886;47.036;15.466;2023-04-25T00:59:06;8.50;;;3.80;;
68097;SDS011;54886;47.036;15.466;2023-04-25T01:01:32;5.13;;;3.22;;
68097;SDS011;54886;47.036;15.466;2023-04-25T01:03:58;4.55;;;2.95;;
68097;SDS011;54886;47.036;15.466;2023-04-25T01:06:24;5.22;;;3.20;;
68097;SDS011;54886;47.036;15.466;2023-04-25T01:08:51;5.30;;;2.95;;
68097;SDS011;54886;47.036;15.466;2023-04-25T01:11:16;4.43;;;3.00;;
68097;SDS011;54886;47.036;15.466;2023-04-25T01:13:42;5.20;;;3.30;;
68097;SDS011;54886;47.036;15.466;2023-04-25T01:16:07;3.97;;;2.63;;
68097;SDS011;54886;47.036;15.466;2023-04-25T01:18:33;4.43;;;2.92;;
68097;SDS011;54886;47.036;15.466;2023-04-25T01:21:11;4.90;;;3.10;;
68097;SDS011;54886;47.036;15.466;2023-04-25T01:23:41;4.38;;;3.20;;
68097;SDS011;54886;47.036;15.466;2023-04-25T01:26:08;5.53;;;3.17;;
68097;SDS011;54886;47.036;15.466;2023-04-25T01:31:00;7.43;;;3.35;;
68097;SDS011;54886;47.036;15.466;2023-04-25T01:33:26;5.28;;;3.05;;
68097;SDS011;54886;47.036;15.466;2023-04-25T01:35:51;5.63;;;3.20;;
68097;SDS011;54886;47.036;15.466;2023-04-25T01:38:17;4.80;;;3.10;;
68097;SDS011;54886;47.036;15.466;2023-04-25T01:40:43;6.47;;;2.90;;
68097;SDS011;54886;47.036;15.466;2023-04-25T01:43:10;5.18;;;3.13;;
68097;SDS011;54886;47.036;15.466;2023-04-25T01:45:37;7.30;;;2.90;;
68097;SDS011;54886;47.036;15.466;2023-04-25T01:48:07;6.25;;;3.05;;
68097;SDS011;54886;47.036;15.466;2023-04-25T01:50:33;4.28;;;2.88;;
68097;SDS011;54886;47.036;15.466;2023-04-25T01:52:59;5.93;;;3.10;;
68097;SDS011;54886;47.036;15.466;2023-04-25T01:55:25;5.05;;;3.38;;
68097;SDS011;54886;47.036;15.466;2023-04-25T01:57:50;5.47;;;3.67;;
68097;SDS011;54886;47.036;15.466;2023-04-25T02:00:15;6.15;;;3.70;;
68097;SDS011;54886;47.036;15.466;2023-04-25T02:02:41;5.72;;;3.58;;
68097;SDS011;54886;47.036;15.466;2023-04-25T02:05:06;7.25;;;3.03;;
68097;SDS011;54886;47.036;15.466;2023-04-25T02:07:32;8.00;;;4.18;;
68097;SDS011;54886;47.036;15.466;2023-04-25T02:09:57;6.28;;;4.25;;
68097;SDS011;54886;47.036;15.466;2023-04-25T02:12:23;6.78;;;3.67;;
68097;SDS011;54886;47.036;15.466;2023-04-25T02:14:51;6.15;;;3.78;;
68097;SDS011;54886;47.036;15.466;2023-04-25T02:17:16;7.57;;;3.70;;
68097;SDS011;54886;47.036;15.466;2023-04-25T02:19:42;6.63;;;3.63;;
68097;SDS011;54886;47.036;15.466;2023-04-25T02:22:08;4.50;;;3.30;;
68097;SDS011;54886;47.036;15.466;2023-04-25T02:24:33;6.10;;;3.45;;
68097;SDS011;54886;47.036;15.466;2023-04-25T02:26:59;7.50;;;3.70;;
68097;SDS011;54886;47.036;15.466;2023-04-25T02:29:25;5.47;;;3.35;;
68097;SDS011;54886;47.036;15.466;2023-04-25T02:31:51;5.07;;;3.30;;
68097;SDS011;54886;47.036;15.466;2023-04-25T02:34:16;7.78;;;3.58;;
68097;SDS011;54886;47.036;15.466;2023-04-25T02:36:41;4.90;;;3.47;;
68097;SDS011;54886;47.036;15.466;2023-04-25T02:39:07;7.57;;;3.20;;
68097;SDS011;54886;47.036;15.466;2023-04-25T02:41:32;5.32;;;3.55;;
68097;SDS011;54886;47.036;15.466;2023-04-25T02:43:57;5.18;;;3.05;;
68097;SDS011;54886;47.036;15.466;2023-04-25T02:46:23;5.93;;;3.50;;
68097;SDS011;54886;47.036;15.466;2023-04-25T02:48:48;5.10;;;2.95;;
68097;SDS011;54886;47.036;15.466;2023-04-25T02:51:13;7.75;;;3.95;;
68097;SDS011;54886;47.036;15.466;2023-04-25T02:53:41;8.18;;;3.53;;
68097;SDS011;54886;47.036;15.466;2023-04-25T02:56:07;6.35;;;3.53;;
68097;SDS011;54886;47.036;15.466;2023-04-25T02:58:32;4.93;;;3.05;;
68097;SDS011;54886;47.036;15.466;2023-04-25T03:00:57;7.47;;;3.10;;
68097;SDS011;54886;47.036;15.466;2023-04-25T03:03:23;8.00;;;3.33;;
68097;SDS011;54886;47.036;15.466;2023-04-25T03:05:49;11.27;;;3.85;;
68097;SDS011;54886;47.036;15.466;2023-04-25T03:08:17;8.82;;;3.95;;
68097;SDS011;54886;47.036;15.466;2023-04-25T03:10:43;7.32;;;4.10;;
68097;SDS011;54886;47.036;15.466;2023-04-25T03:13:09;7.82;;;4.40;;
68097;SDS011;54886;47.036;15.466;2023-04-25T03:15:34;10.48;;;4.80;;
68097;SDS011;54886;47.036;15.466;2023-04-25T03:18:01;11.32;;;5.25;;
68097;SDS011;54886;47.036;15.466;2023-04-25T03:20:26;10.90;;;4.93;;
68097;SDS011;54886;47.036;15.466;2023-04-25T03:22:51;11.43;;;4.93;;
68097;SDS011;54886;47.036;15.466;2023-04-25T03:25:17;15.07;;;5.40;;
68097;SDS011;54886;47.036;15.466;2023-04-25T03:27:42;13.48;;;4.75;;
68097;SDS011;54886;47.036;15.466;2023-04-25T03:30:08;10.30;;;5.00;;
68097;SDS011;54886;47.036;15.466;2023-04-25T03:32:33;9.20;;;4.85;;
68097;SDS011;54886;47.036;15.466;2023-04-25T03:34:59;10.00;;;5.35;;
68097;SDS011;54886;47.036;15.466;2023-04-25T03:37:25;8.27;;;5.30;;
68097;SDS011;54886;47.036;15.466;2023-04-25T03:39:50;15.48;;;5.57;;
68097;SDS011;54886;47.036;15.466;2023-04-25T03:42:15;9.77;;;6.35;;
68097;SDS011;54886;47.036;15.466;2023-04-25T03:44:41;10.90;;;5.55;;
68097;SDS011;54886;47.036;15.466;2023-04-25T03:47:06;10.48;;;5.43;;
68097;SDS011;54886;47.036;15.466;2023-04-25T03:49:34;9.55;;;5.80;;
68097;SDS011;54886;47.036;15.466;2023-04-25T03:52:01;11.05;;;5.88;;
68097;SDS011;54886;47.036;15.466;2023-04-25T03:54:26;8.93;;;5.78;;
68097;SDS011;54886;47.036;15.466;2023-04-25T03:56:52;12.15;;;5.03;;
68097;SDS011;54886;47.036;15.466;2023-04-25T03:59:17;6.82;;;4.65;;
68097;SDS011;54886;47.036;15.466;2023-04-25T04:01:42;21.63;;;5.05;;
68097;SDS011;54886;47.036;15.466;2023-04-25T04:04:08;9.68;;;4.53;;
68097;SDS011;54886;47.036;15.466;2023-04-25T04:06:33;12.75;;;4.50;;
68097;SDS011;54886;47.036;15.466;2023-04-25T04:08:59;6.50;;;4.53;;
68097;SDS011;54886;47.036;15.466;2023-04-25T04:11:24;7.10;;;4.38;;
68097;SDS011;54886;47.036;15.466;2023-04-25T04:13:50;16.27;;;4.65;;
68097;SDS011;54886;47.036;15.466;2023-04-25T04:16:15;7.63;;;4.43;;
68097;SDS011;54886;47.036;15.466;2023-04-25T04:18:40;19.20;;;4.78;;
68097;SDS011;54886;47.036;15.466;2023-04-25T04:21:06;8.93;;;4.75;;
68097;SDS011;54886;47.036;15.466;2023-04-25T04:23:31;12.73;;;5.00;;
68097;SDS011;54886;47.036;15.466;2023-04-25T04:25:57;8.95;;;4.68;;
68097;SDS011;54886;47.036;15.466;2023-04-25T04:28:22;9.05;;;4.45;;
68097;SDS011;54886;47.036;15.466;2023-04-25T04:30:47;8.77;;;4.25;;
68097;SDS011;54886;47.036;15.466;2023-04-25T04:33:16;7.35;;;4.47;;
68097;SDS011;54886;47.036;15.466;2023-04-25T04:35:43;11.10;;;4.22;;
68097;SDS011;54886;47.036;15.466;2023-04-25T04:38:09;7.13;;;4.32;;
68097;SDS011;54886;47.036;15.466;2023-04-25T04:40:35;7.70;;;4.20;;
68097;SDS011;54886;47.036;15.466;2023-04-25T04:43:01;6.95;;;4.07;;
68097;SDS011;54886;47.036;15.466;2023-04-25T04:45:27;8.82;;;4.50;;
68097;SDS011;54886;47.036;15.466;2023-04-25T04:47:52;13.95;;;5.32;;
68097;SDS011;54886;47.036;15.466;2023-04-25T04:50:20;6.03;;;4.13;;
68097;SDS011;54886;47.036;15.466;2023-04-25T04:52:45;7.10;;;4.47;;
68097;SDS011;54886;47.036;15.466;2023-04-25T04:55:11;7.35;;;4.47;;
68097;SDS011;54886;47.036;15.466;2023-04-25T04:57:36;8.90;;;4.53;;
68097;SDS011;54886;47.036;15.466;2023-04-25T05:00:03;8.73;;;4.18;;
68097;SDS011;54886;47.036;15.466;2023-04-25T05:02:30;7.85;;;5.20;;
68097;SDS011;54886;47.036;15.466;2023-04-25T05:04:55;8.18;;;4.60;;
68097;SDS011;54886;47.036;15.466;2023-04-25T05:07:21;8.13;;;5.28;;
68097;SDS011;54886;47.036;15.466;2023-04-25T05:09:46;8.48;;;5.88;;
68097;SDS011;54886;47.036;15.466;2023-04-25T05:12:12;8.45;;;5.30;;
68097;SDS011;54886;47.036;15.466;2023-04-25T05:14:37;8.68;;;5.88;;
68097;SDS011;54886;47.036;15.466;2023-04-25T05:17:03;9.88;;;5.68;;
68097;SDS011;54886;47.036;15.466;2023-04-25T05:19:31;8.32;;;5.43;;
68097;SDS011;54886;47.036;15.466;2023-04-25T05:21:57;9.60;;;6.50;;
68097;SDS011;54886;47.036;15.466;2023-04-25T05:24:22;8.55;;;5.40;;
68097;SDS011;54886;47.036;15.466;2023-04-25T05:26:48;8.15;;;5.05;;
68097;SDS011;54886;47.036;15.466;2023-04-25T05:29:13;8.63;;;5.72;;
68097;SDS011;54886;47.036;15.466;2023-04-25T05:31:38;9.57;;;5.80;;
68097;SDS011;54886;47.036;15.466;2023-04-25T05:34:04;8.00;;;5.45;;
68097;SDS011;54886;47.036;15.466;2023-04-25T05:36:29;10.20;;;5.63;;
68097;SDS011;54886;47.036;15.466;2023-04-25T05:38:57;8.70;;;5.70;;
68097;SDS011;54886;47.036;15.466;2023-04-25T05:41:22;8.85;;;5.45;;
68097;SDS011;54886;47.036;15.466;2023-04-25T05:43:48;9.43;;;5.65;;
68097;SDS011;54886;47.036;15.466;2023-04-25T05:46:14;10.32;;;6.18;;
68097;SDS011;54886;47.036;15.466;2023-04-25T05:48:41;10.63;;;5.80;;
68097;SDS011;54886;47.036;15.466;2023-04-25T05:51:07;10.45;;;6.18;;
68097;SDS011;54886;47.036;15.466;2023-04-25T05:53:32;10.38;;;6.65;;
68097;SDS011;54886;47.036;15.466;2023-04-25T05:55:58;9.48;;;6.53;;
68097;SDS011;54886;47.036;15.466;2023-04-25T05:58:23;11.18;;;6.35;;
68097;SDS011;54886;47.036;15.466;2023-04-25T06:00:49;10.00;;;6.35;;
68097;SDS011;54886;47.036;15.466;2023-04-25T06:03:14;9.80;;;5.95;;
68097;SDS011;54886;47.036;15.466;2023-04-25T06:05:43;11.73;;;6.22;;
68097;SDS011;54886;47.036;15.466;2023-04-25T06:08:09;10.95;;;6.40;;
68097;SDS011;54886;47.036;15.466;2023-04-25T06:10:35;12.02;;;6.63;;
68097;SDS011;54886;47.036;15.466;2023-04-25T06:13:02;11.23;;;7.07;;
68097;SDS011;54886;47.036;15.466;2023-04-25T06:15:28;9.98;;;6.03;;
68097;SDS011;54886;47.036;15.466;2023-04-25T06:17:54;9.40;;;6.20;;
68097;SDS011;54886;47.036;15.466;2023-04-25T06:20:20;8.75;;;5.82;;
68097;SDS011;54886;47.036;15.466;2023-04-25T06:22:48;9.05;;;6.30;;
68097;SDS011;54886;47.036;15.466;2023-04-25T06:25:14;9.82;;;6.00;;
68097;SDS011;54886;47.036;15.466;2023-04-25T06:27:40;11.07;;;6.15;;
68097;SDS011;54886;47.036;15.466;2023-04-25T06:30:05;8.70;;;5.72;;
68097;SDS011;54886;47.036;15.466;2023-04-25T06:32:31;9.05;;;5.55;;
68097;SDS011;54886;47.036;15.466;2023-04-25T06:34:57;9.57;;;5.47;;
68097;SDS011;54886;47.036;15.466;2023-04-25T06:37:22;8.48;;;5.30;;
68097;SDS011;54886;47.036;15.466;2023-04-25T06:39:48;10.05;;;5.50;;
68097;SDS011;54886;47.036;15.466;2023-04-25T06:42:13;8.85;;;5.18;;
68097;SDS011;54886;47.036;15.466;2023-04-25T06:44:39;12.57;;;6.05;;
68097;SDS011;54886;47.036;15.466;2023-04-25T06:47:04;11.15;;;6.57;;
68097;SDS011;54886;47.036;15.466;2023-04-25T06:49:30;11.35;;;6.32;;
68097;SDS011;54886;47.036;15.466;2023-04-25T06:51:55;13.35;;;6.65;;
68097;SDS011;54886;47.036;15.466;2023-04-25T06:54:20;11.88;;;6.78;;
68097;SDS011;54886;47.036;15.466;2023-04-25T06:56:46;9.68;;;6.05;;
68097;SDS011;54886;47.036;15.466;2023-04-25T06:59:11;11.65;;;6.05;;
68097;SDS011;54886;47.036;15.466;2023-04-25T07:01:37;12.80;;;6.05;;
68097;SDS011;54886;47.036;15.466;2023-04-25T07:04:02;13.60;;;6.13;;
68097;SDS011;54886;47.036;15.466;2023-04-25T07:06:27;10.48;;;5.90;;
68097;SDS011;54886;47.036;15.466;2023-04-25T07:08:53;11.13;;;5.68;;
68097;SDS011;54886;47.036;15.466;2023-04-25T07:11:19;12.93;;;5.88;;
68097;SDS011;54886;47.036;15.466;2023-04-25T07:13:45;10.55;;;5.82;;
68097;SDS011;54886;47.036;15.466;2023-04-25T07:16:10;9.50;;;5.38;;
68097;SDS011;54886;47.036;15.466;2023-04-25T07:18:36;8.88;;;5.25;;
68097;SDS011;54886;47.036;15.466;2023-04-25T07:21:01;10.38;;;5.40;;
68097;SDS011;54886;47.036;15.466;2023-04-25T07:23:26;9.25;;;5.45;;
68097;SDS011;54886;47.036;15.466;2023-04-25T07:25:52;10.85;;;5.65;;
68097;SDS011;54886;47.036;15.466;2023-04-25T07:28:17;10.75;;;5.55;;
68097;SDS011;54886;47.036;15.466;2023-04-25T07:30:43;8.40;;;4.65;;
68097;SDS011;54886;47.036;15.466;2023-04-25T07:33:08;7.03;;;4.32;;
68097;SDS011;54886;47.036;15.466;2023-04-25T07:35:34;7.78;;;4.68;;
68097;SDS011;54886;47.036;15.466;2023-04-25T07:37:59;9.57;;;4.95;;
68097;SDS011;54886;47.036;15.466;2023-04-25T07:40:25;9.23;;;4.50;;
68097;SDS011;54886;47.036;15.466;2023-04-25T07:42:50;6.70;;;3.92;;
68097;SDS011;54886;47.036;15.466;2023-04-25T07:45:16;6.60;;;3.80;;
68097;SDS011;54886;47.036;15.466;2023-04-25T07:47:41;37.35;;;22.48;;
68097;SDS011;54886;47.036;15.466;2023-04-25T07:50:07;9.38;;;5.95;;
68097;SDS011;54886;47.036;15.466;2023-04-25T07:52:32;8.00;;;3.88;;
68097;SDS011;54886;47.036;15.466;2023-04-25T07:54:58;6.68;;;3.35;;
68097;SDS011;54886;47.036;15.466;2023-04-25T07:57:23;6.90;;;3.38;;
68097;SDS011;54886;47.036;15.466;2023-04-25T07:59:49;4.07;;;2.90;;
68097;SDS011;54886;47.036;15.466;2023-04-25T08:02:14;5.18;;;3.10;;
68097;SDS011;54886;47.036;15.466;2023-04-25T08:04:40;4.50;;;2.85;;
68097;SDS011;54886;47.036;15.466;2023-04-25T08:07:05;3.67;;;2.47;;
68097;SDS011;54886;47.036;15.466;2023-04-25T08:09:31;3.63;;;2.30;;
68097;SDS011;54886;47.036;15.466;2023-04-25T08:11:59;2.50;;;2.00;;
68097;SDS011;54886;47.036;15.466;2023-04-25T08:14:25;2.58;;;2.00;;
68097;SDS011;54886;47.036;15.466;2023-04-25T08:16:51;3.10;;;1.70;;
68097;SDS011;54886;47.036;15.466;2023-04-25T08:19:16;1.92;;;1.50;;
68097;SDS011;54886;47.036;15.466;2023-04-25T08:21:42;2.33;;;1.52;;
68097;SDS011;54886;47.036;15.466;2023-04-25T08:24:07;1.58;;;1.48;;
68097;SDS011;54886;47.036;15.466;2023-04-25T08:26:32;1.60;;;1.50;;
68097;SDS011;54886;47.036;15.466;2023-04-25T08:28:59;2.30;;;1.50;;
68097;SDS011;54886;47.036;15.466;2023-04-25T08:31:25;2.55;;;1.60;;
68097;SDS011;54886;47.036;15.466;2023-04-25T08:33:50;2.88;;;1.55;;
68097;SDS011;54886;47.036;15.466;2023-04-25T08:36:16;5.28;;;1.67;;
68097;SDS011;54886;47.036;15.466;2023-04-25T08:38:44;2.72;;;1.70;;
68097;SDS011;54886;47.036;15.466;2023-04-25T08:41:09;2.17;;;1.63;;
68097;SDS011;54886;47.036;15.466;2023-04-25T08:43:36;1.50;;;1.40;;
68097;SDS011;54886;47.036;15.466;2023-04-25T08:46:02;3.72;;;1.52;;
68097;SDS011;54886;47.036;15.466;2023-04-25T08:48:28;2.92;;;1.50;;
68097;SDS011;54886;47.036;15.466;2023-04-25T08:50:57;1.88;;;1.60;;
68097;SDS011;54886;47.036;15.466;2023-04-25T08:53:27;1.70;;;1.38;;
68097;SDS011;54886;47.036;15.466;2023-04-25T08:55:54;1.63;;;1.52;;
68097;SDS011;54886;47.036;15.466;2023-04-25T08:58:20;1.73;;;1.40;;
68097;SDS011;54886;47.036;15.466;2023-04-25T09:00:46;1.67;;;1.30;;
68097;SDS011;54886;47.036;15.466;2023-04-25T09:03:14;2.75;;;1.73;;
68097;SDS011;54886;47.036;15.466;2023-04-25T09:05:40;3.47;;;1.35;;
68097;SDS011;54886;47.036;15.466;2023-04-25T09:08:06;2.17;;;1.33;;
68097;SDS011;54886;47.036;15.466;2023-04-25T09:10:32;3.63;;;1.52;;
68097;SDS011;54886;47.036;15.466;2023-04-25T09:13:05;2.30;;;1.48;;
68097;SDS011;54886;47.036;15.466;2023-04-25T09:15:47;2.35;;;1.48;;
68097;SDS011;54886;47.036;15.466;2023-04-25T09:18:26;4.57;;;1.58;;
68097;SDS011;54886;47.036;15.466;2023-04-25T09:21:08;1.88;;;1.50;;
68097;SDS011;54886;47.036;15.466;2023-04-25T09:23:44;2.17;;;1.40;;
68097;SDS011;54886;47.036;15.466;2023-04-25T09:26:10;4.78;;;1.40;;
68097;SDS011;54886;47.036;15.466;2023-04-25T09:28:43;2.38;;;1.50;;
68097;SDS011;54886;47.036;15.466;2023-04-25T09:31:11;1.33;;;1.23;;
68097;SDS011;54886;47.036;15.466;2023-04-25T09:33:37;2.67;;;1.38;;
68097;SDS011;54886;47.036;15.466;2023-04-25T09:38:33;2.60;;;1.40;;
68097;SDS011;54886;47.036;15.466;2023-04-25T09:41:08;1.35;;;1.20;;
68097;SDS011;54886;47.036;15.466;2023-04-25T09:43:35;1.73;;;1.40;;
68097;SDS011;54886;47.036;15.466;2023-04-25T09:46:01;1.92;;;1.40;;
68097;SDS011;54886;47.036;15.466;2023-04-25T09:48:27;1.95;;;1.48;;
68097;SDS011;54886;47.036;15.466;2023-04-25T09:51:10;3.15;;;2.00;;
68097;SDS011;54886;47.036;15.466;2023-04-25T09:53:39;1.73;;;1.40;;
68097;SDS011;54886;47.036;15.466;2023-04-25T09:58:33;2.03;;;1.45;;
68097;SDS011;54886;47.036;15.466;2023-04-25T10:01:01;1.98;;;1.30;;
68097;SDS011;54886;47.036;15.466;2023-04-25T10:03:32;6.90;;;1.50;;
68097;SDS011;54886;47.036;15.466;2023-04-25T10:06:03;1.40;;;1.30;;
68097;SDS011;54886;47.036;15.466;2023-04-25T10:08:32;3.55;;;1.50;;
68097;SDS011;54886;47.036;15.466;2023-04-25T10:11:03;1.40;;;1.30;;
68097;SDS011;54886;47.036;15.466;2023-04-25T10:13:30;2.78;;;1.40;;
68097;SDS011;54886;47.036;15.466;2023-04-25T10:15:59;2.50;;;1.50;;
68097;SDS011;54886;47.036;15.466;2023-04-25T10:18:26;2.97;;;1.40;;
68097;SDS011;54886;47.036;15.466;2023-04-25T10:20:56;2.10;;;1.60;;
68097;SDS011;54886;47.036;15.466;2023-04-25T10:23:23;1.40;;;1.30;;
68097;SDS011;54886;47.036;15.466;2023-04-25T10:25:52;2.17;;;1.35;;
68097;SDS011;54886;47.036;15.466;2023-04-25T10:28:19;2.78;;;1.50;;
68097;SDS011;54886;47.036;15.466;2023-04-25T10:31:03;1.83;;;1.30;;
68097;SDS011;54886;47.036;15.466;2023-04-25T10:33:35;3.95;;;1.50;;
68097;SDS011;54886;47.036;15.466;2023-04-25T10:36:12;1.65;;;1.30;;
68097;SDS011;54886;47.036;15.466;2023-04-25T10:38:39;1.87;;;1.30;;
68097;SDS011;54886;47.036;15.466;2023-04-25T10:43:38;2.13;;;1.45;;
68097;SDS011;54886;47.036;15.466;2023-04-25T10:46:17;4.13;;;1.55;;
68097;SDS011;54886;47.036;15.466;2023-04-25T10:53:56;2.65;;;1.40;;
68097;SDS011;54886;47.036;15.466;2023-04-25T10:56:32;2.50;;;1.50;;
68097;SDS011;54886;47.036;15.466;2023-04-25T11:01:44;2.30;;;1.48;;
68097;SDS011;54886;47.036;15.466;2023-04-25T11:06:50;2.53;;;1.63;;
68097;SDS011;54886;47.036;15.466;2023-04-25T11:09:35;1.83;;;1.40;;
68097;SDS011;54886;47.036;15.466;2023-04-25T11:12:01;2.53;;;1.40;;
68097;SDS011;54886;47.036;15.466;2023-04-25T11:14:27;1.42;;;1.30;;
68097;SDS011;54886;47.036;15.466;2023-04-25T11:16:53;1.67;;;1.35;;
68097;SDS011;54886;47.036;15.466;2023-04-25T11:19:20;1.67;;;1.30;;
68097;SDS011;54886;47.036;15.466;2023-04-25T11:21:46;2.42;;;1.20;;
68097;SDS011;54886;47.036;15.466;2023-04-25T11:24:11;1.80;;;1.40;;
68097;SDS011;54886;47.036;15.466;2023-04-25T11:26:37;5.28;;;1.50;;
68097;SDS011;54886;47.036;15.466;2023-04-25T11:29:02;3.15;;;1.50;;
68097;SDS011;54886;47.036;15.466;2023-04-25T11:31:28;1.40;;;1.30;;
68097;SDS011;54886;47.036;15.466;2023-04-25T11:33:57;1.58;;;1.40;;
68097;SDS011;54886;47.036;15.466;2023-04-25T11:36:23;1.40;;;1.30;;
68097;SDS011;54886;47.036;15.466;2023-04-25T11:38:50;1.70;;;1.40;;
68097;SDS011;54886;47.036;15.466;2023-04-25T11:41:16;2.88;;;1.50;;
68097;SDS011;54886;47.036;15.466;2023-04-25T11:43:43;2.80;;;1.50;;
68097;SDS011;54886;47.036;15.466;2023-04-25T11:46:09;5.90;;;1.55;;
68097;SDS011;54886;47.036;15.466;2023-04-25T11:48:41;3.17;;;1.60;;
68097;SDS011;54886;47.036;15.466;2023-04-25T11:51:07;3.28;;;1.63;;
68097;SDS011;54886;47.036;15.466;2023-04-25T11:53:33;1.60;;;1.48;;
68097;SDS011;54886;47.036;15.466;2023-04-25T11:55:59;2.85;;;1.50;;
68097;SDS011;54886;47.036;15.466;2023-04-25T11:58:25;2.00;;;1.50;;
68097;SDS011;54886;47.036;15.466;2023-04-25T12:00:51;1.80;;;1.40;;
68097;SDS011;54886;47.036;15.466;2023-04-25T12:03:17;3.78;;;1.50;;
68097;SDS011;54886;47.036;15.466;2023-04-25T12:05:42;1.85;;;1.23;;
68097;SDS011;54886;47.036;15.466;2023-04-25T12:08:12;4.75;;;1.50;;
68097;SDS011;54886;47.036;15.466;2023-04-25T12:10:39;1.88;;;1.40;;
68097;SDS011;54886;47.036;15.466;2023-04-25T12:13:20;2.75;;;1.30;;
68097;SDS011;54886;47.036;15.466;2023-04-25T12:15:47;1.70;;;1.40;;
68097;SDS011;54886;47.036;15.466;2023-04-25T12:18:12;1.20;;;1.20;;
68097;SDS011;54886;47.036;15.466;2023-04-25T12:20:38;5.35;;;1.40;;
68097;SDS011;54886;47.036;15.466;2023-04-25T12:23:06;2.45;;;1.25;;
68097;SDS011;54886;47.036;15.466;2023-04-25T12:25:40;2.50;;;1.30;;
68097;SDS011;54886;47.036;15.466;2023-04-25T12:33:18;1.63;;;1.30;;
68097;SDS011;54886;47.036;15.466;2023-04-25T12:35:44;1.95;;;1.20;;
68097;SDS011;54886;47.036;15.466;2023-04-25T12:38:09;1.50;;;1.40;;
68097;SDS011;54886;47.036;15.466;2023-04-25T12:40:35;2.38;;;1.67;;
68097;SDS011;54886;47.036;15.466;2023-04-25T12:43:01;2.17;;;1.40;;
68097;SDS011;54886;47.036;15.466;2023-04-25T12:45:26;2.63;;;1.48;;
68097;SDS011;54886;47.036;15.466;2023-04-25T12:47:51;4.25;;;1.73;;
68097;SDS011;54886;47.036;15.466;2023-04-25T12:50:17;1.85;;;1.35;;
68097;SDS011;54886;47.036;15.466;2023-04-25T12:52:42;2.03;;;1.42;;
68097;SDS011;54886;47.036;15.466;2023-04-25T12:55:07;4.00;;;1.90;;
68097;SDS011;54886;47.036;15.466;2023-04-25T12:57:33;2.08;;;1.50;;
68097;SDS011;54886;47.036;15.466;2023-04-25T12:59:58;1.52;;;1.38;;
68097;SDS011;54886;47.036;15.466;2023-04-25T13:02:23;5.10;;;1.70;;
68097;SDS011;54886;47.036;15.466;2023-04-25T13:04:49;2.78;;;1.45;;
68097;SDS011;54886;47.036;15.466;2023-04-25T13:07:14;2.28;;;1.40;;
68097;SDS011;54886;47.036;15.466;2023-04-25T13:09:41;2.38;;;1.50;;
68097;SDS011;54886;47.036;15.466;2023-04-25T13:12:06;2.47;;;1.70;;
68097;SDS011;54886;47.036;15.466;2023-04-25T13:14:32;2.80;;;1.50;;
68097;SDS011;54886;47.036;15.466;2023-04-25T13:16:57;4.05;;;1.70;;
68097;SDS011;54886;47.036;15.466;2023-04-25T13:19:23;4.25;;;1.55;;
68097;SDS011;54886;47.036;15.466;2023-04-25T13:21:48;6.35;;;1.70;;
68097;SDS011;54886;47.036;15.466;2023-04-25T13:24:14;1.48;;;1.30;;
68097;SDS011;54886;47.036;15.466;2023-04-25T13:26:39;3.00;;;1.50;;
68097;SDS011;54886;47.036;15.466;2023-04-25T13:29:05;3.47;;;1.30;;
68097;SDS011;54886;47.036;15.466;2023-04-25T13:31:31;1.67;;;1.20;;
68097;SDS011;54886;47.036;15.466;2023-04-25T13:33:56;1.50;;;1.40;;
68097;SDS011;54886;47.036;15.466;2023-04-25T13:36:21;3.42;;;1.40;;
68097;SDS011;54886;47.036;15.466;2023-04-25T13:38:47;1.58;;;1.30;;
68097;SDS011;54886;47.036;15.466;2023-04-25T13:41:14;1.75;;;1.40;;
68097;SDS011;54886;47.036;15.466;2023-04-25T13:43:43;1.85;;;1.25;;
68097;SDS011;54886;47.036;15.466;2023-04-25T13:46:09;1.73;;;1.23;;
68097;SDS011;54886;47.036;15.466;2023-04-25T13:48:34;1.83;;;1.40;;
68097;SDS011;54886;47.036;15.466;2023-04-25T13:51:00;1.25;;;1.20;;
68097;SDS011;54886;47.036;15.466;2023-04-25T13:53:25;2.25;;;1.30;;
68097;SDS011;54886;47.036;15.466;2023-04-25T13:55:51;2.75;;;1.42;;
68097;SDS011;54886;47.036;15.466;2023-04-25T13:58:16;1.30;;;1.20;;
68097;SDS011;54886;47.036;15.466;2023-04-25T14:00:42;3.03;;;1.40;;
68097;SDS011;54886;47.036;15.466;2023-04-25T14:03:08;2.53;;;1.25;;
68097;SDS011;54886;47.036;15.466;2023-04-25T14:05:34;2.90;;;1.30;;
68097;SDS011;54886;47.036;15.466;2023-04-25T14:08:03;3.83;;;1.40;;
68097;SDS011;54886;47.036;15.466;2023-04-25T14:10:29;1.67;;;1.30;;
68097;SDS011;54886;47.036;15.466;2023-04-25T14:12:56;4.10;;;1.60;;
68097;SDS011;54886;47.036;15.466;2023-04-25T14:15:21;3.33;;;1.38;;
68097;SDS011;54886;47.036;15.466;2023-04-25T14:17:47;1.88;;;1.13;;
68097;SDS011;54886;47.036;15.466;2023-04-25T14:20:13;1.98;;;1.30;;
68097;SDS011;54886;47.036;15.466;2023-04-25T14:22:38;2.05;;;1.30;;
68097;SDS011;54886;47.036;15.466;2023-04-25T14:25:08;2.00;;;1.30;;
68097;SDS011;54886;47.036;15.466;2023-04-25T14:27:34;1.75;;;1.20;;
68097;SDS011;54886;47.036;15.466;2023-04-25T14:29:59;5.72;;;1.40;;
68097;SDS011;54886;47.036;15.466;2023-04-25T14:32:25;2.42;;;1.40;;
68097;SDS011;54886;47.036;15.466;2023-04-25T14:34:50;1.40;;;1.30;;
68097;SDS011;54886;47.036;15.466;2023-04-25T14:37:16;1.85;;;1.15;;
68097;SDS011;54886;47.036;15.466;2023-04-25T14:39:41;2.40;;;1.38;;
68097;SDS011;54886;47.036;15.466;2023-04-25T14:42:06;4.35;;;1.30;;
68097;SDS011;54886;47.036;15.466;2023-04-25T14:44:32;2.88;;;1.30;;
68097;SDS011;54886;47.036;15.466;2023-04-25T14:46:57;3.85;;;1.40;;
68097;SDS011;54886;47.036;15.466;2023-04-25T14:49:23;5.30;;;1.48;;
68097;SDS011;54886;47.036;15.466;2023-04-25T14:51:48;1.58;;;1.20;;
68097;SDS011;54886;47.036;15.466;2023-04-25T14:54:14;2.15;;;1.30;;